createdAt,value
2023-04-20T00:00:55.161Z,4.55
2023-04-20T00:03:22.129Z,5.10
2023-04-20T00:05:49.181Z,4.88
2023-04-20T00:08:17.438Z,4.82
2023-04-20T00:10:44.580Z,5.05
2023-04-20T00:13:11.434Z,4.68
2023-04-20T00:15:38.585Z,5.43
2023-04-20T00:18:05.574Z,4.78
2023-04-20T00:20:32.428Z,5.57
2023-04-20T00:22:59.210Z,5.82
2023-04-20T00:25:27.250Z,6.78
2023-04-20T00:27:53.932Z,5.78
2023-04-20T00:30:20.889Z,6.43
2023-04-20T00:32:47.659Z,5.40
2023-04-20T00:35:14.581Z,6.15
2023-04-20T00:37:41.281Z,5.43
2023-04-20T00:40:10.556Z,6.45
2023-04-20T00:42:38.632Z,4.97
2023-04-20T00:45:06.274Z,6.32
2023-04-20T00:47:33.017Z,6.50
2023-04-20T00:50:00.227Z,6.82
2023-04-20T00:52:27.372Z,6.18
2023-04-20T00:54:54.150Z,5.88
2023-04-20T00:57:21.951Z,6.45
2023-04-20T00:59:50.629Z,6.13
2023-04-20T01:02:17.429Z,5.47
2023-04-20T01:04:44.420Z,6.80
2023-04-20T01:07:11.138Z,6.47
2023-04-20T01:09:38.193Z,6.88
2023-04-20T01:12:05.500Z,6.32
2023-04-20T01:14:32.274Z,7.13
2023-04-20T01:17:00.356Z,7.25
2023-04-20T01:19:27.044Z,6.55
2023-04-20T01:21:53.744Z,8.18
2023-04-20T01:24:23.188Z,6.68
2023-04-20T01:26:49.893Z,7.15
2023-04-20T01:29:16.806Z,6.13
2023-04-20T01:31:43.691Z,6.53
2023-04-20T01:34:10.572Z,6.88
2023-04-20T01:36:37.292Z,6.70
2023-04-20T01:39:04.172Z,6.78
2023-04-20T01:41:32.200Z,6.65
2023-04-20T01:43:59.023Z,7.18
2023-04-20T01:46:25.826Z,5.85
2023-04-20T01:48:52.572Z,7.88
2023-04-20T01:51:19.275Z,7.63
2023-04-20T01:53:46.053Z,7.35
2023-04-20T01:56:12.774Z,7.00
2023-04-20T01:58:40.822Z,8.02
2023-04-20T02:01:07.581Z,7.13
2023-04-20T02:03:34.678Z,7.90
2023-04-20T02:06:01.830Z,7.55
2023-04-20T02:08:28.611Z,8.40
2023-04-20T02:10:55.302Z,7.05
2023-04-20T02:13:22.014Z,7.85
2023-04-20T02:15:50.063Z,9.35
2023-04-20T02:18:16.894Z,6.80
2023-04-20T02:20:44.224Z,7.43
2023-04-20T02:25:37.645Z,6.95
2023-04-20T02:28:04.981Z,8.82
2023-04-20T02:32:59.837Z,7.40
2023-04-20T02:35:26.573Z,7.90
2023-04-20T02:37:53.314Z,9.75
2023-04-20T02:40:20.177Z,7.90
2023-04-20T02:42:46.981Z,7.18
2023-04-20T02:45:13.742Z,7.28
2023-04-20T02:47:40.445Z,7.80
2023-04-20T02:50:09.646Z,7.35
2023-04-20T02:52:36.361Z,7.88
2023-04-20T02:55:03.359Z,7.85
2023-04-20T02:57:30.086Z,7.85
2023-04-20T02:59:56.829Z,7.65
2023-04-20T03:02:23.725Z,7.75
2023-04-20T03:04:50.669Z,7.43
2023-04-20T03:07:18.779Z,8.73
2023-04-20T03:09:45.494Z,8.40
2023-04-20T03:12:12.198Z,7.68
2023-04-20T03:14:38.923Z,7.80
2023-04-20T03:17:05.652Z,8.52
2023-04-20T03:19:32.411Z,8.15
2023-04-20T03:21:59.123Z,8.23
2023-04-20T03:24:27.186Z,8.00
2023-04-20T03:26:53.956Z,7.32
2023-04-20T03:29:20.767Z,7.93
2023-04-20T03:31:47.505Z,8.27
2023-04-20T03:34:14.241Z,8.98
2023-04-20T03:36:40.958Z,8.30
2023-04-20T03:39:07.650Z,7.28
2023-04-20T03:41:35.779Z,8.32
2023-04-20T03:44:02.541Z,8.48
2023-04-20T03:46:29.462Z,8.13
2023-04-20T03:48:56.583Z,8.45
2023-04-20T03:51:23.376Z,8.23
2023-04-20T03:53:50.113Z,8.70
2023-04-20T03:56:16.884Z,9.20
2023-04-20T03:58:45.288Z,9.32
2023-04-20T04:01:12.009Z,10.23
2023-04-20T04:03:38.956Z,9.55
2023-04-20T04:06:07.197Z,9.57
2023-04-20T04:08:33.917Z,9.85
2023-04-20T04:11:00.855Z,10.40
2023-04-20T04:13:27.626Z,9.80
2023-04-20T04:15:55.692Z,10.45
2023-04-20T04:18:22.590Z,10.38
2023-04-20T04:20:49.353Z,10.35
2023-04-20T04:23:16.082Z,9.27
2023-04-20T04:25:42.827Z,9.65
2023-04-20T04:28:09.604Z,9.40
2023-04-20T04:30:36.312Z,9.02
2023-04-20T04:33:04.535Z,8.90
2023-04-20T04:35:31.363Z,8.55
2023-04-20T04:37:58.062Z,5.82
2023-04-20T04:40:24.780Z,6.95
2023-04-20T04:42:51.542Z,8.77
2023-04-20T04:45:18.696Z,9.57
2023-04-20T04:47:45.456Z,10.98
2023-04-20T04:50:13.551Z,11.25
2023-04-20T04:52:40.268Z,9.23
2023-04-20T04:55:08.084Z,8.40
2023-04-20T04:57:35.003Z,10.30
2023-04-20T05:00:01.868Z,10.50
2023-04-20T05:02:28.737Z,9.40
2023-04-20T05:04:55.696Z,9.32
2023-04-20T05:07:23.738Z,8.85
2023-04-20T05:09:50.425Z,9.52
2023-04-20T05:12:17.123Z,9.90
2023-04-20T05:14:43.833Z,10.20
2023-04-20T05:17:11.253Z,8.93
2023-04-20T05:19:37.993Z,8.88
2023-04-20T05:22:04.848Z,11.98
2023-04-20T05:24:32.912Z,9.35
2023-04-20T05:26:59.741Z,8.80
2023-04-20T05:29:26.548Z,8.75
2023-04-20T05:31:53.287Z,9.13
2023-04-20T05:34:20.050Z,8.38
2023-04-20T05:36:47.023Z,9.57
2023-04-20T05:39:13.765Z,10.88
2023-04-20T05:41:41.817Z,8.48
2023-04-20T05:44:08.581Z,9.07
2023-04-20T05:46:35.285Z,9.05
2023-04-20T05:49:01.983Z,8.65
2023-04-20T05:51:28.697Z,7.68
2023-04-20T05:53:55.453Z,9.95
2023-04-20T05:56:22.166Z,8.90
2023-04-20T05:58:50.321Z,8.40
2023-04-20T06:01:17.011Z,9.27
2023-04-20T06:03:43.864Z,8.73
2023-04-20T06:06:10.785Z,7.95
2023-04-20T06:08:37.487Z,8.18
2023-04-20T06:11:04.183Z,8.25
2023-04-20T06:13:30.889Z,8.80
2023-04-20T06:16:01.229Z,8.13
2023-04-20T06:18:28.478Z,8.43
2023-04-20T06:20:55.166Z,8.80
2023-04-20T06:23:21.890Z,9.20
2023-04-20T06:25:48.597Z,8.32
2023-04-20T06:28:15.308Z,8.38
2023-04-20T06:30:41.974Z,8.40
2023-04-20T06:33:12.274Z,7.78
2023-04-20T06:35:39.770Z,7.45
2023-04-20T06:38:06.477Z,7.82
2023-04-20T06:40:33.256Z,8.23
2023-04-20T06:43:00.024Z,7.85
2023-04-20T06:45:26.743Z,9.18
2023-04-20T06:47:53.544Z,9.77
2023-04-20T06:50:21.816Z,9.45
2023-04-20T06:52:48.524Z,9.10
2023-04-20T06:55:15.267Z,6.82
2023-04-20T06:57:41.982Z,9.65
2023-04-20T07:00:10.406Z,8.60
2023-04-20T07:02:44.318Z,7.90
2023-04-20T07:05:11.095Z,8.15
2023-04-20T07:07:39.498Z,8.77
2023-04-20T07:10:07.399Z,8.32
2023-04-20T07:12:36.087Z,8.10
2023-04-20T07:15:03.230Z,8.95
2023-04-20T07:17:30.272Z,8.35
2023-04-20T07:19:57.166Z,8.82
2023-04-20T07:22:23.894Z,7.85
2023-04-20T07:24:51.952Z,8.07
2023-04-20T07:27:18.664Z,8.40
2023-04-20T07:29:45.513Z,8.55
2023-04-20T07:32:12.336Z,8.83
2023-04-20T07:34:41.862Z,7.72
2023-04-20T07:37:08.575Z,7.40
2023-04-20T07:39:35.317Z,9.38
2023-04-20T07:42:04.187Z,9.00
2023-04-20T07:44:30.937Z,8.45
2023-04-20T07:46:57.663Z,9.00
2023-04-20T07:49:24.784Z,9.27
2023-04-20T07:51:51.509Z,9.00
2023-04-20T07:54:18.221Z,8.70
2023-04-20T07:56:44.969Z,8.93
2023-04-20T07:59:13.008Z,7.90
2023-04-20T08:01:39.737Z,9.32
2023-04-20T08:04:06.703Z,10.60
2023-04-20T08:06:33.766Z,9.25
2023-04-20T08:09:00.511Z,9.80
2023-04-20T08:11:27.197Z,9.93
2023-04-20T08:13:54.341Z,9.73
2023-04-20T08:16:24.074Z,10.43
2023-04-20T08:18:50.870Z,10.82
2023-04-20T08:21:17.553Z,10.52
2023-04-20T08:23:44.277Z,10.07
2023-04-20T08:26:15.009Z,10.43
2023-04-20T08:28:41.762Z,9.75
2023-04-20T08:31:08.475Z,10.35
2023-04-20T08:33:36.599Z,11.30
2023-04-20T08:36:03.455Z,10.88
2023-04-20T08:38:34.071Z,12.27
2023-04-20T08:41:01.283Z,11.10
2023-04-20T08:43:28.103Z,11.50
2023-04-20T08:45:58.696Z,11.93
2023-04-20T08:48:25.923Z,11.88
2023-04-20T08:50:54.853Z,11.88
2023-04-20T08:53:21.583Z,12.82
2023-04-20T08:55:49.140Z,10.68
2023-04-20T08:58:16.540Z,12.73
2023-04-20T09:00:46.828Z,13.55
2023-04-20T09:03:13.763Z,12.75
2023-04-20T09:05:40.788Z,11.95
2023-04-20T09:08:09.246Z,12.02
2023-04-20T09:10:41.400Z,13.32
2023-04-20T09:13:08.170Z,12.73
2023-04-20T09:15:34.949Z,12.80
2023-04-20T09:18:11.905Z,13.52
2023-04-20T09:20:38.605Z,11.85
2023-04-20T09:23:14.107Z,11.23
2023-04-20T09:25:41.407Z,11.75
2023-04-20T09:28:08.236Z,10.68
2023-04-20T09:30:39.062Z,11.35
2023-04-20T09:33:06.366Z,11.07
2023-04-20T09:35:33.103Z,10.40
2023-04-20T09:37:59.893Z,10.65
2023-04-20T09:40:28.663Z,9.70
2023-04-20T09:42:58.225Z,10.52
2023-04-20T09:45:25.669Z,10.35
2023-04-20T09:50:29.031Z,10.10
2023-04-20T09:53:00.514Z,10.18
2023-04-20T09:55:30.765Z,9.48
2023-04-20T09:57:57.828Z,10.27
2023-04-20T10:00:25.029Z,10.15
2023-04-20T10:02:52.021Z,11.02
2023-04-20T10:05:19.113Z,11.30
2023-04-20T10:07:46.217Z,10.30
2023-04-20T10:10:14.480Z,11.23
2023-04-20T10:12:49.867Z,11.10
2023-04-20T10:15:17.080Z,10.68
2023-04-20T10:17:44.456Z,10.32
2023-04-20T10:22:45.262Z,11.20
2023-04-20T10:25:15.642Z,10.82
2023-04-20T10:27:54.602Z,11.15
2023-04-20T10:30:22.676Z,11.02
2023-04-20T10:32:49.740Z,12.05
2023-04-20T10:35:16.471Z,11.82
2023-04-20T10:37:50.227Z,10.98
2023-04-20T10:40:17.694Z,10.38
2023-04-20T10:45:14.735Z,10.10
2023-04-20T10:47:41.533Z,12.00
2023-04-20T10:50:10.034Z,11.43
2023-04-20T10:52:39.136Z,11.77
2023-04-20T10:55:07.519Z,11.02
2023-04-20T10:57:34.276Z,10.38
2023-04-20T11:00:12.899Z,10.85
2023-04-20T11:02:48.160Z,9.57
2023-04-20T11:05:15.627Z,9.00
2023-04-20T11:10:13.751Z,8.02
2023-04-20T11:12:40.499Z,8.93
2023-04-20T11:15:08.760Z,9.90
2023-04-20T11:17:37.184Z,9.48
2023-04-20T11:20:07.246Z,9.57
2023-04-20T11:22:33.953Z,8.63
2023-04-20T11:25:03.915Z,9.70
2023-04-20T11:27:30.633Z,9.93
2023-04-20T11:29:58.124Z,8.50
2023-04-20T11:35:07.095Z,7.68
2023-04-20T11:37:46.222Z,9.30
2023-04-20T11:40:13.298Z,8.13
2023-04-20T11:42:39.996Z,9.57
2023-04-20T11:45:09.812Z,9.23
2023-04-20T11:47:36.535Z,9.18
2023-04-20T11:50:03.657Z,8.85
2023-04-20T11:52:30.393Z,7.75
2023-04-20T11:54:58.444Z,9.38
2023-04-20T11:57:25.267Z,9.43
2023-04-20T11:59:51.991Z,10.60
2023-04-20T12:02:18.851Z,9.45
2023-04-20T12:04:45.792Z,9.90
2023-04-20T12:07:12.747Z,11.00
2023-04-20T12:09:39.466Z,8.82
2023-04-20T12:12:08.087Z,9.27
2023-04-20T12:14:34.960Z,9.30
2023-04-20T12:17:02.595Z,8.93
2023-04-20T12:19:29.415Z,10.50
2023-04-20T12:21:56.418Z,8.82
2023-04-20T12:24:23.599Z,9.68
2023-04-20T12:26:50.347Z,10.75
2023-04-20T12:29:18.605Z,11.23
2023-04-20T12:31:45.478Z,10.90
2023-04-20T12:34:12.344Z,11.07
2023-04-20T12:36:39.361Z,10.80
2023-04-20T12:39:06.129Z,11.93
2023-04-20T12:41:32.901Z,10.95
2023-04-20T12:43:59.627Z,11.98
2023-04-20T12:46:27.798Z,10.65
2023-04-20T12:48:54.600Z,11.95
2023-04-20T12:51:21.368Z,12.23
2023-04-20T12:53:48.074Z,12.30
2023-04-20T12:56:14.835Z,11.52
2023-04-20T12:58:41.563Z,12.43
2023-04-20T13:01:08.325Z,11.77
2023-04-20T13:03:36.521Z,11.73
2023-04-20T13:06:08.179Z,12.27
2023-04-20T13:08:34.904Z,12.68
2023-04-20T13:11:01.640Z,13.03
2023-04-20T13:13:29.774Z,12.60
2023-04-20T13:15:56.498Z,13.55
2023-04-20T13:18:23.221Z,14.73
2023-04-20T13:20:51.345Z,12.97
2023-04-20T13:23:18.120Z,13.73
2023-04-20T13:25:44.826Z,14.20
2023-04-20T13:28:13.174Z,14.50
2023-04-20T13:30:41.128Z,13.32
2023-04-20T13:33:07.947Z,13.47
2023-04-20T13:35:34.831Z,13.93
2023-04-20T13:38:03.449Z,11.80
2023-04-20T13:40:30.370Z,11.75
2023-04-20T13:42:57.099Z,12.45
2023-04-20T13:45:24.454Z,13.05
2023-04-20T13:47:51.314Z,12.93
2023-04-20T13:50:18.110Z,13.00
2023-04-20T13:52:44.871Z,12.05
2023-04-20T13:55:12.929Z,12.55
2023-04-20T13:57:39.687Z,11.82
2023-04-20T14:00:07.829Z,12.32
2023-04-20T14:02:34.770Z,12.90
2023-04-20T14:05:01.588Z,12.18
2023-04-20T14:07:28.298Z,11.07
2023-04-20T14:09:55.024Z,12.23
2023-04-20T14:12:23.116Z,10.73
2023-04-20T14:14:50.008Z,13.02
2023-04-20T14:17:16.720Z,11.75
2023-04-20T14:19:43.463Z,11.27
2023-04-20T14:22:10.174Z,11.90
2023-04-20T14:24:36.867Z,12.88
2023-04-20T14:27:03.701Z,11.90
2023-04-20T14:29:31.784Z,12.30
2023-04-20T14:31:58.526Z,10.80
2023-04-20T14:34:25.300Z,12.20
2023-04-20T14:36:52.013Z,12.10
2023-04-20T14:39:19.567Z,11.63
2023-04-20T14:41:46.303Z,10.35
2023-04-20T14:44:15.092Z,11.30
2023-04-20T14:46:43.248Z,11.80
2023-04-20T14:49:09.970Z,12.40
2023-04-20T14:51:36.697Z,12.07
2023-04-20T14:54:03.464Z,12.77
2023-04-20T14:56:30.179Z,12.45
2023-04-20T14:58:56.881Z,12.57
2023-04-20T15:01:23.664Z,11.73
2023-04-20T15:03:52.275Z,12.45
2023-04-20T15:06:19.207Z,11.45
2023-04-20T15:08:45.941Z,12.80
2023-04-20T15:11:12.652Z,11.77
2023-04-20T15:13:39.349Z,12.93
2023-04-20T15:16:06.797Z,12.50
2023-04-20T15:21:01.517Z,12.43
2023-04-20T15:23:28.210Z,12.88
2023-04-20T15:25:54.926Z,14.27
2023-04-20T15:28:21.864Z,14.40
2023-04-20T15:30:48.579Z,13.60
2023-04-20T15:33:15.290Z,11.25
2023-04-20T15:35:42.086Z,13.75
2023-04-20T15:38:10.166Z,13.27
2023-04-20T15:40:36.979Z,11.98
2023-04-20T15:43:03.702Z,13.30
2023-04-20T15:45:30.428Z,12.02
2023-04-20T15:47:57.233Z,11.95
2023-04-20T15:50:24.148Z,12.00
2023-04-20T15:52:50.851Z,12.45
2023-04-20T15:55:18.901Z,11.85
2023-04-20T15:57:45.645Z,11.35
2023-04-20T16:00:13.297Z,12.77
2023-04-20T16:02:40.248Z,13.60
2023-04-20T16:05:07.750Z,15.00
2023-04-20T16:07:34.454Z,13.98
2023-04-20T16:10:01.163Z,9.43
2023-04-20T16:12:29.267Z,13.00
2023-04-20T16:14:56.041Z,14.77
2023-04-20T16:17:22.791Z,15.43
2023-04-20T16:19:50.074Z,14.20
2023-04-20T16:22:16.796Z,17.83
2023-04-20T16:24:43.548Z,10.85
2023-04-20T16:27:10.291Z,14.75
2023-04-20T16:29:38.372Z,15.70
2023-04-20T16:32:05.584Z,15.05
2023-04-20T16:34:32.360Z,16.58
2023-04-20T16:36:59.723Z,16.38
2023-04-20T16:39:26.438Z,16.33
2023-04-20T16:41:53.147Z,11.60
2023-04-20T16:44:20.161Z,19.30
2023-04-20T16:46:50.145Z,18.42
2023-04-20T16:49:17.107Z,18.23
2023-04-20T16:51:43.855Z,17.20
2023-04-20T16:54:11.308Z,18.48
2023-04-20T16:59:04.785Z,17.83
2023-04-20T17:01:31.620Z,18.35
2023-04-20T17:03:59.976Z,19.05
2023-04-20T17:06:26.832Z,19.98
2023-04-20T17:08:53.689Z,17.75
2023-04-20T17:11:20.412Z,16.27
2023-04-20T17:13:47.153Z,19.33
2023-04-20T17:16:14.073Z,17.50
2023-04-20T17:18:41.941Z,18.02
2023-04-20T17:21:10.186Z,16.73
2023-04-20T17:23:36.906Z,17.00
2023-04-20T17:26:03.675Z,15.55
2023-04-20T17:28:32.550Z,15.25
2023-04-20T17:30:59.275Z,14.90
2023-04-20T17:33:26.062Z,17.23
2023-04-20T17:35:52.864Z,13.48
2023-04-20T17:38:21.214Z,21.77
2023-04-20T17:40:48.164Z,17.60
2023-04-20T17:43:17.497Z,16.80
2023-04-20T17:45:46.711Z,26.98
2023-04-20T17:48:13.376Z,18.77
2023-04-20T17:50:40.107Z,17.47
2023-04-20T17:53:07.084Z,20.17
2023-04-20T17:55:35.698Z,16.75
2023-04-20T17:58:02.390Z,16.08
2023-04-20T18:00:29.145Z,14.03
2023-04-20T18:02:59.285Z,14.35
2023-04-20T18:05:26.327Z,16.70
2023-04-20T18:07:53.167Z,16.45
2023-04-20T18:10:20.070Z,13.52
2023-04-20T18:12:48.162Z,16.02
2023-04-20T18:15:14.976Z,16.23
2023-04-20T18:17:44.120Z,15.30
2023-04-20T18:20:11.403Z,14.75
2023-04-20T18:22:40.706Z,16.40
2023-04-20T18:25:08.059Z,15.30
2023-04-20T18:27:34.782Z,16.60
2023-04-20T18:30:03.104Z,17.77
2023-04-20T18:32:29.851Z,18.73
2023-04-20T18:34:56.586Z,16.73
2023-04-20T18:37:23.300Z,17.30
2023-04-20T18:39:50.004Z,17.57
2023-04-20T18:42:16.992Z,16.33
2023-04-20T18:44:51.287Z,16.10
2023-04-20T18:47:19.908Z,15.27
2023-04-20T18:49:46.632Z,16.92
2023-04-20T18:52:13.355Z,16.52
2023-04-20T18:54:40.364Z,16.05
2023-04-20T18:57:07.542Z,16.77
2023-04-20T18:59:34.238Z,16.90
2023-04-20T19:02:01.182Z,15.70
2023-04-20T19:04:29.614Z,17.85
2023-04-20T19:06:56.452Z,15.10
2023-04-20T19:09:23.137Z,17.23
2023-04-20T19:11:50.067Z,18.07
2023-04-20T19:14:16.848Z,18.48
2023-04-20T19:16:43.769Z,12.43
2023-04-20T19:19:10.494Z,18.38
2023-04-20T19:21:38.588Z,18.55
2023-04-20T19:24:06.704Z,18.63
2023-04-20T19:26:33.473Z,19.67
2023-04-20T19:29:00.215Z,15.77
2023-04-20T19:31:27.021Z,18.10
2023-04-20T19:33:55.881Z,20.00
2023-04-20T19:36:23.759Z,19.95
2023-04-20T19:38:51.799Z,20.30
2023-04-20T19:41:18.529Z,17.92
2023-04-20T19:43:45.319Z,18.83
2023-04-20T19:46:12.111Z,19.00
2023-04-20T19:48:38.845Z,19.20
2023-04-20T19:51:05.575Z,18.33
2023-04-20T19:53:33.499Z,19.90
2023-04-20T19:56:02.696Z,20.50
2023-04-20T19:58:30.369Z,20.88
2023-04-20T20:00:57.115Z,19.60
2023-04-20T20:03:24.001Z,20.50
2023-04-20T20:05:50.818Z,21.67
2023-04-20T20:08:17.483Z,21.35
2023-04-20T20:10:44.246Z,20.93
2023-04-20T20:13:12.607Z,22.67
2023-04-20T20:15:39.331Z,23.15
2023-04-20T20:18:06.147Z,22.10
2023-04-20T20:20:32.930Z,22.33
2023-04-20T20:22:59.889Z,24.02
2023-04-20T20:25:26.804Z,23.38
2023-04-20T20:27:53.548Z,25.15
2023-04-20T20:30:21.618Z,25.38
2023-04-20T20:32:48.336Z,22.73
2023-04-20T20:35:15.105Z,25.20
2023-04-20T20:37:41.925Z,21.85
2023-04-20T20:40:09.913Z,24.48
2023-04-20T20:42:37.303Z,21.42
2023-04-20T20:45:04.933Z,22.60
2023-04-20T20:47:33.139Z,23.27
2023-04-20T20:49:59.940Z,21.95
2023-04-20T20:52:29.805Z,23.70
2023-04-20T20:54:56.540Z,22.65
2023-04-20T20:57:23.286Z,23.52
2023-04-20T20:59:51.239Z,24.95
2023-04-20T21:02:19.944Z,23.65
2023-04-20T21:04:48.076Z,23.63
2023-04-20T21:07:14.797Z,23.98
2023-04-20T21:09:41.622Z,25.05
2023-04-20T21:12:08.373Z,24.58
2023-04-20T21:14:35.106Z,24.05
2023-04-20T21:17:02.027Z,24.10
2023-04-20T21:19:28.789Z,24.20
2023-04-20T21:21:59.211Z,26.00
2023-04-20T21:24:26.020Z,26.70
2023-04-20T21:26:52.776Z,25.38
2023-04-20T21:29:19.810Z,25.77
2023-04-20T21:31:46.929Z,26.48
2023-04-20T21:34:13.704Z,26.10
2023-04-20T21:36:40.420Z,29.45
2023-04-20T21:39:08.468Z,27.25
2023-04-20T21:41:35.219Z,27.67
2023-04-20T21:44:01.904Z,27.02
2023-04-20T21:46:28.813Z,27.75
2023-04-20T21:48:55.560Z,27.77
2023-04-20T21:51:22.343Z,26.73
2023-04-20T21:53:49.068Z,27.25
2023-04-20T21:56:17.149Z,28.88
2023-04-20T21:58:43.895Z,27.63
2023-04-20T22:01:10.705Z,28.63
2023-04-20T22:03:38.144Z,29.45
2023-04-20T22:06:05.492Z,28.88
2023-04-20T22:08:33.306Z,32.90
2023-04-20T22:11:00.063Z,30.17
2023-04-20T22:13:28.163Z,29.45
2023-04-20T22:15:54.925Z,30.90
2023-04-20T22:18:21.645Z,30.58
2023-04-20T22:20:48.604Z,29.98
2023-04-20T22:23:15.322Z,31.17
2023-04-20T22:25:42.072Z,29.75
2023-04-20T22:28:08.909Z,33.63
2023-04-20T22:30:37.177Z,34.05
2023-04-20T22:33:03.984Z,32.28
2023-04-20T22:35:31.107Z,33.78
2023-04-20T22:37:57.833Z,36.45
2023-04-20T22:40:24.871Z,35.92
2023-04-20T22:42:51.559Z,35.65
2023-04-20T22:45:18.419Z,34.83
2023-04-20T22:47:46.650Z,36.33
2023-04-20T22:50:13.678Z,33.97
2023-04-20T22:52:40.704Z,36.65
2023-04-20T22:55:09.172Z,33.78
2023-04-20T22:57:36.003Z,34.17
2023-04-20T23:00:03.416Z,31.75
2023-04-20T23:04:58.309Z,29.15
2023-04-20T23:07:25.013Z,31.60
2023-04-20T23:09:51.714Z,35.00
2023-04-20T23:12:18.411Z,32.75
2023-04-20T23:14:45.117Z,32.77
2023-04-20T23:17:11.888Z,32.15
2023-04-20T23:19:38.720Z,34.10
2023-04-20T23:22:06.885Z,31.75
2023-04-20T23:24:33.850Z,30.70
2023-04-20T23:27:00.743Z,31.25
2023-04-20T23:29:27.614Z,34.60
2023-04-20T23:31:54.460Z,36.28
2023-04-20T23:34:21.177Z,33.75
2023-04-20T23:36:48.494Z,31.98
2023-04-20T23:39:17.130Z,30.50
2023-04-20T23:41:44.605Z,28.85
2023-04-20T23:44:11.317Z,29.50
2023-04-20T23:46:38.074Z,32.35
2023-04-20T23:49:04.788Z,30.45
2023-04-20T23:51:31.528Z,31.60
2023-04-20T23:53:58.239Z,31.35
2023-04-20T23:56:26.319Z,30.75
2023-04-20T23:58:53.016Z,30.08
